Time;durP1;ratioP1;P1;durP2;ratioP2;P2;SDS_P1;SDS_P2;PMS_P1;PMS_P2;Temp;Humidity;BMP_temperature;BMP_pressure;BME280_temperature;BME280_humidity;BME280_pressure;Samples;Min_cycle;Max_cycle;Signal;HPM_P1;HPM_P2
2021/11/08 00:00:22;;;;;;;22.23;4.07;;;;;;;;;;5048189;28;20375;-67
2021/11/08 00:02:49;;;;;;;22.05;4.70;;;;;;;;;;5037440;28;20137;-67
2021/11/08 00:05:16;;;;;;;19.60;4.13;;;;;;;;;;5040713;28;20504;-67
2021/11/08 00:07:45;;;;;;;15.93;3.97;;;;;;;;;;5040496;28;20075;-67
2021/11/08 00:10:12;;;;;;;16.40;3.83;;;;;;;;;;5047862;28;20160;-67
2021/11/08 00:12:38;;;;;;;22.23;4.32;;;;;;;;;;5047441;28;20463;-67
2021/11/08 00:15:07;;;;;;;15.38;3.65;;;;;;;;;;5042616;28;20059;-67
2021/11/08 00:18:00;;;;;;;29.80;5.35;;;;;;;;;;5045271;28;20057;-67
2021/11/08 00:20:40;;;;;;;20.77;5.15;;;;;;;;;;5018910;28;20157;-67
2021/11/08 00:23:09;;;;;;;41.20;5.30;;;;;;;;;;5030052;28;20049;-67
2021/11/08 00:25:36;;;;;;;18.92;4.03;;;;;;;;;;5023154;28;20072;-67
2021/11/08 00:28:05;;;;;;;18.65;3.92;;;;;;;;;;5045677;28;20049;-67
2021/11/08 00:30:32;;;;;;;;;;;;;;;;;;5043224;28;20064;-67
2021/11/08 00:32:59;;;;;;;15.15;4.22;;;;;;;;;;5043606;28;19921;-67
2021/11/08 00:35:25;;;;;;;16.80;4.05;;;;;;;;;;5047976;28;20452;-67
2021/11/08 00:37:51;;;;;;;21.00;4.35;;;;;;;;;;5042906;28;20494;-67
2021/11/08 00:40:18;;;;;;;17.70;4.50;;;;;;;;;;5050180;28;20053;-67
2021/11/08 00:42:44;;;;;;;17.38;4.25;;;;;;;;;;5046287;28;20060;-67
2021/11/08 00:45:11;;;;;;;20.45;4.35;;;;;;;;;;5047566;28;20049;-67
2021/11/08 00:47:38;;;;;;;21.08;4.95;;;;;;;;;;5042286;28;20052;-67
2021/11/08 00:50:06;;;;;;;19.48;4.20;;;;;;;;;;5052693;28;20056;-67
2021/11/08 00:52:33;;;;;;;18.13;4.13;;;;;;;;;;5050332;28;20048;-67
2021/11/08 00:54:59;;;;;;;22.25;5.50;;;;;;;;;;5050054;28;20049;-67
2021/11/08 00:57:30;;;;;;;18.63;4.20;;;;;;;;;;5052596;28;20053;-67
2021/11/08 00:59:57;;;;;;;17.25;3.78;;;;;;;;;;5041000;28;20420;-67
2021/11/08 01:02:28;;;;;;;23.77;4.68;;;;;;;;;;5048070;28;20053;-67
2021/11/08 01:04:57;;;;;;;19.33;4.35;;;;;;;;;;5046207;28;20049;-67
2021/11/08 01:07:23;;;;;;;17.98;4.35;;;;;;;;;;5052487;28;20052;-67
2021/11/08 01:09:49;;;;;;;19.38;4.63;;;;;;;;;;5046597;28;20064;-67
2021/11/08 01:12:17;;;;;;;13.90;4.05;;;;;;;;;;5052720;28;20049;-67
2021/11/08 01:14:44;;;;;;;17.23;4.38;;;;;;;;;;5026815;28;20057;-67
2021/11/08 01:17:10;;;;;;;17.65;4.53;;;;;;;;;;5023605;28;20785;-67
2021/11/08 01:19:36;;;;;;;22.48;5.60;;;;;;;;;;5032426;28;20055;-67
2021/11/08 01:22:06;;;;;;;17.13;4.55;;;;;;;;;;5026639;28;20072;-67
2021/11/08 01:24:34;;;;;;;16.45;4.20;;;;;;;;;;5033501;28;20060;-67
2021/11/08 01:27:00;;;;;;;24.13;4.83;;;;;;;;;;5030323;28;20037;-68
2021/11/08 01:29:27;;;;;;;23.92;5.03;;;;;;;;;;5046486;28;20049;-67
2021/11/08 01:32:00;;;;;;;14.95;4.55;;;;;;;;;;5052239;28;20045;-67
2021/11/08 01:34:30;;;;;;;17.50;4.75;;;;;;;;;;5045254;28;20052;-67
2021/11/08 01:36:59;;;;;;;12.20;4.30;;;;;;;;;;5052310;28;20051;-67
2021/11/08 01:39:32;;;;;;;18.55;4.25;;;;;;;;;;5046287;28;20486;-67
2021/11/08 01:42:01;;;;;;;16.02;4.38;;;;;;;;;;5048737;28;20131;-67
2021/11/08 01:44:28;;;;;;;19.67;4.70;;;;;;;;;;5040851;28;20059;-68
2021/11/08 01:46:56;;;;;;;16.65;5.25;;;;;;;;;;5051579;28;20056;-68
2021/11/08 01:49:22;;;;;;;16.08;4.72;;;;;;;;;;5046070;28;20490;-67
2021/11/08 01:51:48;;;;;;;16.92;4.45;;;;;;;;;;5050366;28;20052;-67
2021/11/08 01:54:15;;;;;;;20.05;5.28;;;;;;;;;;5050952;28;20584;-67
2021/11/08 01:56:42;;;;;;;13.70;4.22;;;;;;;;;;5038428;28;20045;-67
2021/11/08 01:59:08;;;;;;;17.52;4.03;;;;;;;;;;5050182;28;20053;-68
2021/11/08 02:01:37;;;;;;;16.60;4.63;;;;;;;;;;5045432;28;20065;-67
2021/11/08 02:04:03;;;;;;;20.80;4.40;;;;;;;;;;5051797;28;20045;-67
2021/11/08 02:06:30;;;;;;;20.75;4.90;;;;;;;;;;5046214;28;20481;-67
2021/11/08 02:08:56;;;;;;;18.70;4.82;;;;;;;;;;5046935;28;20435;-67
2021/11/08 02:11:22;;;;;;;20.25;5.00;;;;;;;;;;5047328;28;20049;-67
2021/11/08 02:13:50;;;;;;;27.60;5.00;;;;;;;;;;5044551;28;20053;-67
2021/11/08 02:16:16;;;;;;;15.88;4.68;;;;;;;;;;5051660;28;20402;-67
2021/11/08 02:18:43;;;;;;;21.05;6.15;;;;;;;;;;5044203;28;20045;-67
2021/11/08 02:21:12;;;;;;;20.23;5.18;;;;;;;;;;5051907;28;20067;-67
2021/11/08 02:23:40;;;;;;;25.45;5.88;;;;;;;;;;5040151;28;20136;-67
2021/11/08 02:26:11;;;;;;;20.83;4.75;;;;;;;;;;5046491;28;20056;-67
2021/11/08 02:28:38;;;;;;;19.88;5.55;;;;;;;;;;5050901;28;20052;-67
2021/11/08 02:31:05;;;;;;;20.13;5.15;;;;;;;;;;5044714;28;20052;-67
2021/11/08 02:33:32;;;;;;;23.23;5.75;;;;;;;;;;5051211;28;20068;-67
2021/11/08 02:35:58;;;;;;;19.00;5.47;;;;;;;;;;5045172;28;20726;-67
2021/11/08 02:38:28;;;;;;;16.10;5.15;;;;;;;;;;5045308;28;20518;-67
2021/11/08 02:40:56;;;;;;;19.80;5.55;;;;;;;;;;5041741;28;20056;-67
2021/11/08 02:43:25;;;;;;;19.63;5.93;;;;;;;;;;5050991;28;20068;-67
2021/11/08 02:45:56;;;;;;;23.70;4.57;;;;;;;;;;5050734;28;20778;-67
2021/11/08 02:48:24;;;;;;;18.55;4.72;;;;;;;;;;5045307;28;20056;-67
2021/11/08 02:50:56;;;;;;;22.15;6.18;;;;;;;;;;5047035;28;20048;-67
2021/11/08 02:53:24;;;;;;;25.88;5.25;;;;;;;;;;5040103;28;20044;-66
2021/11/08 02:55:51;;;;;;;19.35;5.57;;;;;;;;;;5050227;28;20049;-66
2021/11/08 02:58:17;;;;;;;13.98;4.22;;;;;;;;;;5044317;28;20049;-67
2021/11/08 03:00:43;;;;;;;12.65;4.28;;;;;;;;;;5050630;28;20501;-67
2021/11/08 03:03:10;;;;;;;17.67;5.50;;;;;;;;;;5043161;28;20072;-67
2021/11/08 03:05:38;;;;;;;21.65;5.15;;;;;;;;;;5045537;28;20049;-67
2021/11/08 03:08:05;;;;;;;20.95;6.07;;;;;;;;;;5046046;28;20059;-67
2021/11/08 03:10:33;;;;;;;12.82;5.30;;;;;;;;;;5043973;28;20045;-67
2021/11/08 03:13:07;;;;;;;19.38;6.25;;;;;;;;;;5050492;28;20040;-67
2021/11/08 03:15:46;;;;;;;17.88;5.78;;;;;;;;;;5043134;28;20052;-67
2021/11/08 03:18:27;;;;;;;16.08;5.25;;;;;;;;;;5049287;28;20045;-67
2021/11/08 03:20:54;;;;;;;17.55;5.30;;;;;;;;;;5031055;28;20053;-67
2021/11/08 03:23:20;;;;;;;20.50;5.38;;;;;;;;;;5029531;28;20057;-67
2021/11/08 03:28:31;;;;;;;17.30;5.45;;;;;;;;;;5030071;28;20049;-67
2021/11/08 03:30:59;;;;;;;14.88;4.90;;;;;;;;;;5034503;28;20037;-67
2021/11/08 03:33:25;;;;;;;20.23;4.97;;;;;;;;;;5039275;28;20049;-67
2021/11/08 03:35:53;;;;;;;15.95;5.40;;;;;;;;;;5045938;28;20065;-66
2021/11/08 03:38:19;;;;;;;25.20;5.80;;;;;;;;;;5042989;28;20060;-67
2021/11/08 03:40:46;;;;;;;18.35;6.05;;;;;;;;;;5049538;28;20056;-67
2021/11/08 03:43:15;;;;;;;22.77;5.40;;;;;;;;;;5042532;28;20059;-67
2021/11/08 03:45:41;;;;;;;;;;;;;;;;;;5049900;28;20049;-67
2021/11/08 03:48:08;;;;;;;15.80;5.30;;;;;;;;;;5041449;28;20373;-67
2021/11/08 03:50:34;;;;;;;22.80;5.13;;;;;;;;;;5042613;28;20051;-67
2021/11/08 03:53:01;;;;;;;17.58;5.38;;;;;;;;;;5049720;28;20049;-66
2021/11/08 03:55:28;;;;;;;19.60;5.53;;;;;;;;;;5042235;28;20448;-67
2021/11/08 03:57:54;;;;;;;20.95;5.28;;;;;;;;;;5049424;28;20049;-67
2021/11/08 04:00:22;;;;;;;16.98;5.50;;;;;;;;;;5037789;28;20045;-67
2021/11/08 04:02:49;;;;;;;15.23;5.03;;;;;;;;;;5045007;28;20049;-67
2021/11/08 04:05:16;;;;;;;22.38;5.00;;;;;;;;;;5049303;28;20060;-67
2021/11/08 04:07:43;;;;;;;15.88;4.53;;;;;;;;;;5043004;28;20045;-67
2021/11/08 04:10:10;;;;;;;18.85;5.22;;;;;;;;;;5049905;28;20053;-67
2021/11/08 04:12:38;;;;;;;21.92;5.88;;;;;;;;;;5042626;28;20049;-67
2021/11/08 04:15:07;;;;;;;16.08;5.10;;;;;;;;;;5045318;28;20067;-67
2021/11/08 04:17:33;;;;;;;17.88;5.00;;;;;;;;;;5042831;28;20418;-66
2021/11/08 04:20:00;;;;;;;19.38;5.50;;;;;;;;;;5053781;28;20056;-66
2021/11/08 04:22:26;;;;;;;15.30;4.65;;;;;;;;;;5048370;28;20064;-67
2021/11/08 04:24:54;;;;;;;19.38;5.20;;;;;;;;;;5051628;28;20582;-67
2021/11/08 04:27:20;;;;;;;16.58;5.38;;;;;;;;;;5053329;28;20049;-67
2021/11/08 04:29:48;;;;;;;20.60;5.30;;;;;;;;;;5040493;28;20060;-67
2021/11/08 04:32:14;;;;;;;23.00;5.63;;;;;;;;;;5053275;28;20051;-67
2021/11/08 04:34:52;;;;;;;26.20;5.82;;;;;;;;;;5045452;28;20057;-67
2021/11/08 04:40:17;;;;;;;22.05;4.93;;;;;;;;;;5044945;28;20053;-67
2021/11/08 04:50:59;;;;;;;;;;;;;;;;;;5037747;28;20055;-66
2021/11/08 04:56:30;;;;;;;22.15;5.60;;;;;;;;;;5045116;28;20049;-67
2021/11/08 05:31:47;;;;;;;20.55;5.70;;;;;;;;;;4964426;28;20054;-67
2021/11/08 05:34:17;;;;;;;18.13;5.13;;;;;;;;;;4970767;28;20069;-67
2021/11/08 05:36:43;;;;;;;25.65;5.53;;;;;;;;;;4958608;28;20054;-67
2021/11/08 05:39:10;;;;;;;19.67;5.93;;;;;;;;;;4972758;28;20054;-67
2021/11/08 05:41:39;;;;;;;21.52;5.18;;;;;;;;;;4989835;28;20058;-67
2021/11/08 05:44:06;;;;;;;19.58;6.22;;;;;;;;;;4983889;28;20101;-67
2021/11/08 05:46:34;;;;;;;15.25;5.25;;;;;;;;;;4977929;28;20047;-67
2021/11/08 05:49:00;;;;;;;22.73;5.35;;;;;;;;;;4961451;28;20061;-67
2021/11/08 05:51:27;;;;;;;15.32;4.82;;;;;;;;;;4965732;28;20049;-67
2021/11/08 05:53:54;;;;;;;18.88;5.07;;;;;;;;;;4963577;28;20057;-66
2021/11/08 05:59:17;;;;;;;11.65;4.85;;;;;;;;;;4970122;28;20050;-66
2021/11/08 06:48:41;;;;;;;19.83;5.55;;;;;;;;;;5040460;28;20060;-66
2021/11/08 06:50:59;;;;;;;24.70;5.88;;;;;;;;;;5024190;28;20049;-67
2021/11/08 06:53:27;;;;;;;19.73;5.85;;;;;;;;;;5030651;28;20050;-67
2021/11/08 06:55:56;;;;;;;19.85;5.95;;;;;;;;;;5036403;28;20052;-67
2021/11/08 06:58:22;;;;;;;31.30;6.85;;;;;;;;;;5048939;28;20052;-66
2021/11/08 07:00:50;;;;;;;21.08;6.43;;;;;;;;;;5038070;28;20060;-67
2021/11/08 07:03:16;;;;;;;27.48;6.68;;;;;;;;;;5024129;28;20054;-67
2021/11/08 07:05:42;;;;;;;24.45;6.53;;;;;;;;;;5029236;28;20046;-67
2021/11/08 07:08:10;;;;;;;29.98;6.57;;;;;;;;;;5022877;28;20053;-67
2021/11/08 07:10:37;;;;;;;24.90;6.45;;;;;;;;;;5029516;28;20050;-67
2021/11/08 07:13:08;;;;;;;27.45;6.40;;;;;;;;;;5026410;28;20179;-67
2021/11/08 07:15:34;;;;;;;25.20;6.10;;;;;;;;;;5045257;28;20059;-67
2021/11/08 07:18:01;;;;;;;24.33;7.18;;;;;;;;;;5050667;28;20162;-67
2021/11/08 07:20:28;;;;;;;27.75;6.88;;;;;;;;;;5038222;28;20052;-67
2021/11/08 07:22:55;;;;;;;26.35;6.38;;;;;;;;;;5030045;28;20049;-67
2021/11/08 07:25:22;;;;;;;27.92;6.85;;;;;;;;;;5022478;28;20052;-67
2021/11/08 07:27:49;;;;;;;24.38;6.38;;;;;;;;;;5023870;28;20053;-67
2021/11/08 07:30:15;;;;;;;28.75;7.03;;;;;;;;;;5023079;28;20052;-67
2021/11/08 07:32:41;;;;;;;19.25;5.95;;;;;;;;;;5029878;28;20410;-67
2021/11/08 07:35:08;;;;;;;23.92;6.00;;;;;;;;;;5029969;28;20461;-67
2021/11/08 07:37:35;;;;;;;32.38;6.55;;;;;;;;;;5031749;28;20042;-67
2021/11/08 07:40:02;;;;;;;31.48;7.03;;;;;;;;;;5027761;28;20061;-67
2021/11/08 07:42:28;;;;;;;28.42;7.05;;;;;;;;;;5019709;28;20057;-67
2021/11/08 07:44:55;;;;;;;20.67;7.13;;;;;;;;;;5029496;28;20057;-67
2021/11/08 07:47:21;;;;;;;20.05;5.82;;;;;;;;;;5022587;28;20053;-67
2021/11/08 07:49:47;;;;;;;26.85;7.28;;;;;;;;;;5029087;28;20052;-67
2021/11/08 07:52:14;;;;;;;32.45;6.93;;;;;;;;;;5033728;28;20057;-67
2021/11/08 07:54:40;;;;;;;28.42;6.40;;;;;;;;;;5022805;28;20063;-67
2021/11/08 07:57:07;;;;;;;26.60;7.30;;;;;;;;;;5051691;28;20102;-67
2021/11/08 07:59:33;;;;;;;24.90;6.35;;;;;;;;;;5041106;28;20053;-67
2021/11/08 08:02:01;;;;;;;24.17;7.43;;;;;;;;;;5037644;28;20445;-67
2021/11/08 08:04:27;;;;;;;39.35;7.78;;;;;;;;;;5026626;28;20045;-67
2021/11/08 08:06:53;;;;;;;32.45;7.60;;;;;;;;;;5029503;28;20051;-67
2021/11/08 08:09:20;;;;;;;30.65;7.55;;;;;;;;;;5025318;28;20045;-67
2021/11/08 08:11:47;;;;;;;32.90;7.78;;;;;;;;;;5029630;28;20042;-67
2021/11/08 08:14:14;;;;;;;29.95;7.07;;;;;;;;;;5049334;28;20045;-68
2021/11/08 08:16:40;;;;;;;44.72;7.63;;;;;;;;;;5045694;28;20053;-67
2021/11/08 08:19:06;;;;;;;20.50;7.03;;;;;;;;;;5053391;28;20060;-67
2021/11/08 08:21:33;;;;;;;26.55;6.82;;;;;;;;;;5043075;28;20053;-67
2021/11/08 08:24:00;;;;;;;30.95;6.47;;;;;;;;;;5048988;28;20057;-67
2021/11/08 08:26:28;;;;;;;30.33;7.10;;;;;;;;;;5047217;28;20067;-67
2021/11/08 08:28:55;;;;;;;34.35;8.25;;;;;;;;;;5044886;28;20513;-67
2021/11/08 08:31:21;;;;;;;21.95;6.43;;;;;;;;;;5033754;28;20061;-67
2021/11/08 08:33:48;;;;;;;23.33;7.25;;;;;;;;;;5025767;28;20037;-67
2021/11/08 08:36:15;;;;;;;26.38;8.18;;;;;;;;;;5029182;28;20041;-67
2021/11/08 08:38:41;;;;;;;29.70;6.82;;;;;;;;;;5024172;28;20045;-67
2021/11/08 08:41:08;;;;;;;28.60;7.05;;;;;;;;;;5053383;28;20132;-67
2021/11/08 08:43:34;;;;;;;25.48;7.15;;;;;;;;;;5046689;28;20367;-67
2021/11/08 08:46:00;;;;;;;28.23;8.65;;;;;;;;;;5053123;28;20059;-67
2021/11/08 08:48:27;;;;;;;36.03;7.47;;;;;;;;;;5052220;28;20063;-67
2021/11/08 08:50:54;;;;;;;27.92;7.28;;;;;;;;;;5038935;28;20059;-67
2021/11/08 08:53:20;;;;;;;29.63;7.50;;;;;;;;;;5052772;28;20061;-67
2021/11/08 08:55:46;;;;;;;24.95;6.47;;;;;;;;;;5045304;28;20060;-67
2021/11/08 08:58:13;;;;;;;22.70;7.32;;;;;;;;;;5034116;28;20053;-67
2021/11/08 09:00:41;;;;;;;30.50;7.63;;;;;;;;;;5029450;28;20060;-68
2021/11/08 09:03:07;;;;;;;27.30;7.50;;;;;;;;;;5048680;28;20477;-67
2021/11/08 09:05:34;;;;;;;35.55;7.43;;;;;;;;;;5047822;28;20288;-68
2021/11/08 09:08:00;;;;;;;31.38;7.53;;;;;;;;;;5045534;28;20053;-67
2021/11/08 09:10:29;;;;;;;33.35;7.13;;;;;;;;;;5050421;28;20041;-67
2021/11/08 09:12:56;;;;;;;27.98;6.63;;;;;;;;;;5031547;28;20055;-67
2021/11/08 09:15:23;;;;;;;24.27;7.05;;;;;;;;;;5042229;28;20055;-67
2021/11/08 09:17:50;;;;;;;30.02;9.18;;;;;;;;;;5020565;28;20075;-67
2021/11/08 09:20:17;;;;;;;26.65;7.03;;;;;;;;;;5027571;28;20081;-67
2021/11/08 09:22:44;;;;;;;29.85;7.25;;;;;;;;;;5032452;28;20075;-67
2021/11/08 09:25:11;;;;;;;24.92;6.93;;;;;;;;;;5025767;28;20045;-67
2021/11/08 09:27:38;;;;;;;33.78;7.80;;;;;;;;;;5032355;28;20133;-69
2021/11/08 09:30:05;;;;;;;30.23;8.27;;;;;;;;;;5025460;28;20072;-67
2021/11/08 09:32:32;;;;;;;32.58;8.00;;;;;;;;;;5027260;28;20406;-67
2021/11/08 09:34:58;;;;;;;25.25;6.82;;;;;;;;;;5023006;28;20053;-67
2021/11/08 09:37:30;;;;;;;22.50;7.90;;;;;;;;;;5032533;28;20052;-67
2021/11/08 09:39:57;;;;;;;30.67;7.95;;;;;;;;;;5040949;28;20063;-67
2021/11/08 09:42:26;;;;;;;21.80;6.68;;;;;;;;;;5048688;28;20057;-67
2021/11/08 09:44:52;;;;;;;26.65;7.18;;;;;;;;;;5035394;28;20045;-67
2021/11/08 09:47:18;;;;;;;26.27;8.00;;;;;;;;;;5020308;28;20045;-67
2021/11/08 09:49:51;;;;;;;35.75;7.53;;;;;;;;;;5030940;28;20063;-67
2021/11/08 09:52:18;;;;;;;20.33;5.75;;;;;;;;;;5028165;28;20072;-67
2021/11/08 09:55:00;;;;;;;28.48;6.45;;;;;;;;;;5036500;28;20072;-67
2021/11/08 09:57:27;;;;;;;27.75;6.78;;;;;;;;;;5046178;28;20045;-67
2021/11/08 09:59:53;;;;;;;37.40;7.85;;;;;;;;;;5046883;28;20394;-67
2021/11/08 10:02:35;;;;;;;28.83;6.13;;;;;;;;;;5027067;28;20427;-67
2021/11/08 10:05:01;;;;;;;23.25;6.55;;;;;;;;;;5026271;28;20048;-67
2021/11/08 10:07:27;;;;;;;24.38;7.13;;;;;;;;;;5031285;28;20136;-66
2021/11/08 10:09:54;;;;;;;23.75;6.65;;;;;;;;;;5023765;28;20049;-66
2021/11/08 10:12:20;;;;;;;27.23;6.72;;;;;;;;;;5034313;28;20053;-71
2021/11/08 10:14:47;;;;;;;29.42;7.45;;;;;;;;;;5030551;28;20144;-67
2021/11/08 10:17:13;;;;;;;25.38;6.35;;;;;;;;;;5031744;28;20505;-67
2021/11/08 10:19:40;;;;;;;29.60;6.35;;;;;;;;;;5026555;28;20070;-67
2021/11/08 10:22:06;;;;;;;34.40;7.22;;;;;;;;;;5029490;28;20049;-67
2021/11/08 10:24:37;;;;;;;23.08;6.00;;;;;;;;;;5031561;28;20060;-67
2021/11/08 10:27:07;;;;;;;30.27;6.45;;;;;;;;;;5032569;28;20349;-67
2021/11/08 10:29:33;;;;;;;27.80;6.55;;;;;;;;;;5029481;28;20053;-67
2021/11/08 10:32:06;;;;;;;23.73;6.03;;;;;;;;;;5024250;28;20469;-68
2021/11/08 10:34:32;;;;;;;16.77;5.45;;;;;;;;;;5030860;28;20128;-67
2021/11/08 10:37:04;;;;;;;27.90;6.70;;;;;;;;;;5023915;28;20053;-67
2021/11/08 10:39:38;;;;;;;26.35;6.05;;;;;;;;;;5034382;28;20041;-67
2021/11/08 10:42:05;;;;;;;31.17;6.60;;;;;;;;;;5046389;28;20128;-67
2021/11/08 10:44:33;;;;;;;25.30;6.88;;;;;;;;;;5043425;28;20052;-67
2021/11/08 10:47:01;;;;;;;25.45;5.80;;;;;;;;;;5050675;28;20037;-67
2021/11/08 10:49:28;;;;;;;18.98;4.72;;;;;;;;;;5044071;28;20123;-67
2021/11/08 10:52:00;;;;;;;21.55;5.80;;;;;;;;;;5050563;28;20414;-67
2021/11/08 10:54:31;;;;;;;22.90;5.68;;;;;;;;;;5038972;28;20044;-67
2021/11/08 10:56:59;;;;;;;31.20;5.82;;;;;;;;;;5045627;28;20064;-67
2021/11/08 10:59:37;;;;;;;25.05;5.07;;;;;;;;;;5044754;28;20410;-67
2021/11/08 11:02:05;;;;;;;27.23;4.95;;;;;;;;;;5050668;28;20064;-67
2021/11/08 11:04:36;;;;;;;29.67;5.85;;;;;;;;;;5050677;28;20056;-67
2021/11/08 11:07:04;;;;;;;18.00;4.93;;;;;;;;;;5040979;28;20420;-67
2021/11/08 11:09:35;;;;;;;19.02;4.13;;;;;;;;;;5044841;28;20120;-67
2021/11/08 11:12:14;;;;;;;21.80;4.97;;;;;;;;;;5043618;28;20053;-67
2021/11/08 11:14:42;;;;;;;16.63;4.35;;;;;;;;;;5049997;28;20521;-67
2021/11/08 11:17:13;;;;;;;24.42;5.60;;;;;;;;;;5043294;28;20055;-67
2021/11/08 11:19:39;;;;;;;17.77;5.40;;;;;;;;;;5049542;28;20409;-68
2021/11/08 11:22:09;;;;;;;20.75;5.38;;;;;;;;;;5039780;28;20049;-67
2021/11/08 11:24:55;;;;;;;22.70;5.15;;;;;;;;;;5044706;28;20417;-67
2021/11/08 11:27:24;;;;;;;18.33;4.30;;;;;;;;;;5049889;28;20736;-67
2021/11/08 11:29:51;;;;;;;22.95;4.00;;;;;;;;;;5043563;28;20386;-68
2021/11/08 11:32:19;;;;;;;22.27;4.85;;;;;;;;;;5049846;28;20049;-68
2021/11/08 11:34:46;;;;;;;22.07;4.37;;;;;;;;;;5042214;28;20486;-68
2021/11/08 11:37:16;;;;;;;22.77;4.32;;;;;;;;;;5049569;28;20057;-68
2021/11/08 11:39:42;;;;;;;24.88;4.72;;;;;;;;;;5043605;28;20053;-68
2021/11/08 11:42:09;;;;;;;26.73;4.45;;;;;;;;;;5050254;28;20111;-68
2021/11/08 11:44:35;;;;;;;20.92;5.78;;;;;;;;;;5050154;28;20044;-68
2021/11/08 11:47:11;;;;;;;19.65;4.10;;;;;;;;;;5037595;28;20067;-67
2021/11/08 11:49:37;;;;;;;25.80;4.80;;;;;;;;;;5047422;28;20513;-67
2021/11/08 11:52:04;;;;;;;26.50;4.75;;;;;;;;;;5043115;28;20045;-67
2021/11/08 11:54:30;;;;;;;21.55;4.70;;;;;;;;;;5049372;28;20049;-67
2021/11/08 11:56:58;;;;;;;23.98;5.63;;;;;;;;;;5043601;28;20413;-67
2021/11/08 11:59:24;;;;;;;32.03;5.07;;;;;;;;;;5047743;28;20410;-67
2021/11/08 12:01:51;;;;;;;28.90;6.80;;;;;;;;;;5038558;28;20625;-68
2021/11/08 12:04:23;;;;;;;21.15;4.97;;;;;;;;;;5049179;28;20136;-67
2021/11/08 12:06:52;;;;;;;24.10;4.90;;;;;;;;;;5049131;28;20049;-67
2021/11/08 12:09:19;;;;;;;24.38;5.47;;;;;;;;;;5043390;28;20471;-68
2021/11/08 12:11:51;;;;;;;20.15;5.05;;;;;;;;;;5049319;28;20045;-68
2021/11/08 12:14:18;;;;;;;26.38;5.15;;;;;;;;;;5039282;28;20084;-68
2021/11/08 12:16:50;;;;;;;19.15;5.07;;;;;;;;;;5047319;28;20048;-67
2021/11/08 12:19:17;;;;;;;21.10;5.18;;;;;;;;;;5041468;28;20053;-67
2021/11/08 12:21:43;;;;;;;24.83;5.38;;;;;;;;;;5049620;28;20060;-68
2021/11/08 12:24:20;;;;;;;21.52;5.38;;;;;;;;;;5049826;28;20044;-67
2021/11/08 12:26:47;;;;;;;23.63;6.07;;;;;;;;;;5044694;28;20041;-68
2021/11/08 12:29:21;;;;;;;26.50;5.23;;;;;;;;;;5045060;28;20053;-68
2021/11/08 12:31:58;;;;;;;23.25;6.20;;;;;;;;;;5042689;28;20301;-68
2021/11/08 12:34:25;;;;;;;23.13;6.43;;;;;;;;;;5049618;28;20041;-68
2021/11/08 12:36:59;;;;;;;24.80;5.38;;;;;;;;;;5043424;28;20059;-68
2021/11/08 12:39:26;;;;;;;23.90;4.75;;;;;;;;;;5052547;28;20547;-68
2021/11/08 12:41:56;;;;;;;25.35;4.75;;;;;;;;;;5039654;28;20087;-68
2021/11/08 12:44:31;;;;;;;24.00;4.85;;;;;;;;;;5053116;28;20064;-68
2021/11/08 12:47:00;;;;;;;25.05;5.20;;;;;;;;;;5047298;28;20048;-68
2021/11/08 12:49:32;;;;;;;21.55;4.57;;;;;;;;;;5052677;28;20041;-68
2021/11/08 12:52:06;;;;;;;23.55;5.18;;;;;;;;;;5053213;28;20056;-68
2021/11/08 12:54:44;;;;;;;24.08;5.55;;;;;;;;;;5042583;28;20139;-68
2021/11/08 12:57:11;;;;;;;25.13;4.95;;;;;;;;;;5049375;28;20436;-69
2021/11/08 13:00:04;;;;;;;30.83;5.07;;;;;;;;;;5046222;28;20049;-68
2021/11/08 13:02:38;;;;;;;26.48;5.47;;;;;;;;;;5044086;28;20052;-68
2021/11/08 13:05:09;;;;;;;21.58;5.53;;;;;;;;;;5046433;28;20052;-68
2021/11/08 13:07:39;;;;;;;23.60;4.72;;;;;;;;;;5048058;28;20053;-69
2021/11/08 13:10:17;;;;;;;20.98;4.47;;;;;;;;;;5041287;28;20060;-69
2021/11/08 13:12:44;;;;;;;;;;;;;;;;;;5052834;28;20734;-68
2021/11/08 13:15:12;;;;;;;26.15;5.55;;;;;;;;;;5052651;28;19929;-68
2021/11/08 13:17:46;;;;;;;25.50;5.20;;;;;;;;;;5046194;28;20111;-68
2021/11/08 13:20:13;;;;;;;36.20;5.80;;;;;;;;;;5051623;28;20069;-70
2021/11/08 13:22:47;;;;;;;22.10;4.80;;;;;;;;;;5038281;28;20052;-69
2021/11/08 13:25:13;;;;;;;18.90;5.03;;;;;;;;;;5051695;28;20254;-69
2021/11/08 13:27:52;;;;;;;;;;;;;;;;;;5044770;28;20450;-69
2021/11/08 13:30:22;;;;;;;24.25;5.32;;;;;;;;;;5052305;28;19921;-70
2021/11/08 13:32:51;;;;;;;26.60;4.60;;;;;;;;;;5045462;28;20048;-68
2021/11/08 13:35:26;;;;;;;20.25;4.28;;;;;;;;;;5048236;28;20708;-69
2021/11/08 13:38:12;;;;;;;22.15;4.28;;;;;;;;;;5047198;28;20045;-69
2021/11/08 13:40:40;;;;;;;24.80;4.55;;;;;;;;;;5051267;28;20045;-69
2021/11/08 13:43:12;;;;;;;24.15;5.13;;;;;;;;;;5052267;28;20063;-69
2021/11/08 13:45:49;;;;;;;26.00;4.82;;;;;;;;;;5044412;28;20425;-69
2021/11/08 13:48:43;;;;;;;29.40;5.00;;;;;;;;;;5048799;28;20049;-69
2021/11/08 13:51:19;;;;;;;15.40;3.50;;;;;;;;;;5038572;28;20049;-70
2021/11/08 13:53:50;;;;;;;27.63;4.93;;;;;;;;;;5051121;28;20049;-70
2021/11/08 13:56:21;;;;;;;23.80;3.53;;;;;;;;;;5041012;28;20536;-69
2021/11/08 13:58:47;;;;;;;23.13;4.15;;;;;;;;;;5051422;28;20401;-69
2021/11/08 14:01:14;;;;;;;25.95;4.00;;;;;;;;;;5045937;28;20047;-70
2021/11/08 14:03:44;;;;;;;22.23;4.32;;;;;;;;;;5047233;28;20056;-70
2021/11/08 14:06:15;;;;;;;18.27;4.40;;;;;;;;;;5047553;28;20049;-70
2021/11/08 14:08:48;;;;;;;25.67;4.65;;;;;;;;;;5044503;28;20057;-69
2021/11/08 14:11:34;;;;;;;26.08;4.55;;;;;;;;;;5051324;28;20071;-69
2021/11/08 14:14:01;;;;;;;31.02;4.75;;;;;;;;;;5045224;28;20055;-69
2021/11/08 14:16:27;;;;;;;30.00;5.30;;;;;;;;;;5046703;28;20049;-69
2021/11/08 14:18:54;;;;;;;31.20;5.53;;;;;;;;;;5040927;28;20053;-69
2021/11/08 14:21:22;;;;;;;26.05;5.32;;;;;;;;;;5051491;28;20049;-69
2021/11/08 14:23:54;;;;;;;39.70;5.10;;;;;;;;;;5044277;28;20041;-69
2021/11/08 14:26:21;;;;;;;25.10;7.30;;;;;;;;;;5050568;28;20049;-69
2021/11/08 14:28:48;;;;;;;26.08;6.32;;;;;;;;;;5050278;28;20075;-69
2021/11/08 14:31:17;;;;;;;25.83;4.82;;;;;;;;;;5038505;28;20045;-69
2021/11/08 14:33:44;;;;;;;30.00;5.53;;;;;;;;;;5048534;28;20087;-69
2021/11/08 14:36:14;;;;;;;33.53;6.15;;;;;;;;;;5043973;28;20049;-70
2021/11/08 14:38:46;;;;;;;19.45;4.65;;;;;;;;;;5050672;28;20071;-70
2021/11/08 14:41:12;;;;;;;30.58;6.20;;;;;;;;;;5045024;28;20060;-69
2021/11/08 14:43:39;;;;;;;21.00;5.18;;;;;;;;;;5047580;28;20374;-68
2021/11/08 14:46:07;;;;;;;28.38;5.45;;;;;;;;;;5039644;28;20391;-68
2021/11/08 14:48:35;;;;;;;24.45;4.53;;;;;;;;;;5049601;28;20135;-68
2021/11/08 14:51:22;;;;;;;17.63;4.07;;;;;;;;;;5050429;28;20058;-68
2021/11/08 14:53:53;;;;;;;16.25;3.20;;;;;;;;;;5042994;28;20049;-68
2021/11/08 14:56:21;;;;;;;17.63;3.60;;;;;;;;;;5046268;28;20068;-68
2021/11/08 14:58:58;;;;;;;27.02;3.72;;;;;;;;;;5036647;28;20513;-68
2021/11/08 15:01:26;;;;;;;20.70;3.90;;;;;;;;;;5050866;28;20482;-68
2021/11/08 15:04:06;;;;;;;18.50;3.50;;;;;;;;;;5044012;28;20076;-68
2021/11/08 15:06:33;;;;;;;19.25;3.78;;;;;;;;;;5050918;28;20044;-68
2021/11/08 15:09:03;;;;;;;19.58;3.88;;;;;;;;;;5042971;28;20051;-68
2021/11/08 15:11:29;;;;;;;17.15;4.47;;;;;;;;;;5046668;28;20045;-68
2021/11/08 15:14:06;;;;;;;16.10;3.92;;;;;;;;;;5045526;28;20053;-68
2021/11/08 15:17:02;;;;;;;19.13;2.80;;;;;;;;;;5043875;28;20045;-68
2021/11/08 15:19:28;;;;;;;19.88;4.63;;;;;;;;;;5045251;28;20416;-68
2021/11/08 15:21:56;;;;;;;20.67;3.33;;;;;;;;;;5043458;28;20048;-69
2021/11/08 15:24:28;;;;;;;19.63;3.78;;;;;;;;;;5045683;28;20048;-68
2021/11/08 15:26:58;;;;;;;15.20;3.40;;;;;;;;;;5038061;28;20045;-68
2021/11/08 15:29:26;;;;;;;19.42;3.42;;;;;;;;;;5049630;28;20048;-68
2021/11/08 15:31:55;;;;;;;22.45;4.57;;;;;;;;;;5043415;28;20410;-68
2021/11/08 15:34:22;;;;;;;19.35;3.25;;;;;;;;;;5049888;28;20060;-69
2021/11/08 15:37:01;;;;;;;20.35;3.63;;;;;;;;;;5049617;28;20048;-69
2021/11/08 15:39:29;;;;;;;28.48;5.13;;;;;;;;;;5045426;28;20140;-68
2021/11/08 15:41:56;;;;;;;;;;;;;;;;;;5045727;28;20044;-68
2021/11/08 15:44:23;;;;;;;24.88;5.13;;;;;;;;;;5044199;28;19921;-68
2021/11/08 15:46:50;;;;;;;26.42;5.82;;;;;;;;;;5049702;28;20090;-70
2021/11/08 15:49:16;;;;;;;19.35;4.60;;;;;;;;;;5042297;28;20053;-68
2021/11/08 15:51:42;;;;;;;29.25;4.60;;;;;;;;;;5049170;28;20056;-67
2021/11/08 15:54:10;;;;;;;19.83;5.82;;;;;;;;;;5034920;28;20063;-68
2021/11/08 15:56:38;;;;;;;25.48;3.92;;;;;;;;;;5047319;28;20053;-68
2021/11/08 15:59:05;;;;;;;22.08;4.18;;;;;;;;;;5050181;28;20045;-69
2021/11/08 16:01:34;;;;;;;20.33;3.88;;;;;;;;;;5042267;28;20052;-71
2021/11/08 16:04:01;;;;;;;;;;;;;;;;;;5050883;28;20049;-69
2021/11/08 16:06:27;;;;;;;24.63;3.88;;;;;;;;;;5039764;28;19924;-68
2021/11/08 16:08:54;;;;;;;29.80;5.18;;;;;;;;;;5044234;28;20052;-68
2021/11/08 16:11:20;;;;;;;25.67;7.45;;;;;;;;;;5043459;28;20053;-69
2021/11/08 16:13:46;;;;;;;28.45;4.32;;;;;;;;;;5052586;28;20049;-69
2021/11/08 16:16:15;;;;;;;27.05;4.32;;;;;;;;;;5053775;28;20047;-68
2021/11/08 16:18:41;;;;;;;22.75;4.57;;;;;;;;;;5046832;28;20068;-68
2021/11/08 16:21:08;;;;;;;23.17;4.00;;;;;;;;;;5047992;28;20072;-68